createdAt,value
2018-12-27T00:00:09.472Z,31.47
2018-12-27T00:02:38.588Z,30.23
2018-12-27T00:05:07.583Z,31.93
2018-12-27T00:07:36.655Z,32.13
2018-12-27T00:10:06.034Z,32.50
2018-12-27T00:12:35.092Z,31.27
2018-12-27T00:15:04.405Z,32.10
2018-12-27T00:17:33.582Z,31.57
2018-12-27T00:20:02.668Z,31.93
2018-12-27T00:22:31.818Z,33.03
2018-12-27T00:25:00.846Z,31.13
2018-12-27T00:27:29.925Z,32.50
2018-12-27T00:30:00.589Z,32.60
2018-12-27T00:32:29.771Z,31.60
2018-12-27T00:34:58.852Z,30.93
2018-12-27T00:37:28.121Z,30.57
2018-12-27T00:39:57.255Z,31.83
2018-12-27T00:42:26.544Z,33.37
2018-12-27T00:44:55.935Z,32.60
2018-12-27T00:47:25.041Z,32.63
2018-12-27T00:49:54.188Z,31.77
2018-12-27T00:52:23.271Z,33.47
2018-12-27T00:54:52.795Z,32.60
2018-12-27T00:57:21.809Z,33.20
2018-12-27T00:59:50.804Z,32.63
2018-12-27T01:02:20.038Z,32.10
2018-12-27T01:04:49.128Z,32.30
2018-12-27T01:07:18.233Z,31.90
2018-12-27T01:09:47.363Z,31.20
2018-12-27T01:12:16.872Z,32.40
2018-12-27T01:14:46.199Z,31.30
2018-12-27T01:17:15.535Z,30.27
2018-12-27T01:19:44.556Z,31.07
2018-12-27T01:22:13.842Z,31.37
2018-12-27T01:24:43.135Z,29.60
2018-12-27T01:27:12.255Z,31.20
2018-12-27T01:29:41.950Z,29.87
2018-12-27T01:32:11.524Z,30.10
2018-12-27T01:34:40.955Z,30.00
2018-12-27T01:37:10.106Z,31.90
2018-12-27T01:39:39.660Z,28.90
2018-12-27T01:42:08.884Z,30.10
2018-12-27T01:44:39.220Z,30.27
2018-12-27T01:47:08.313Z,31.17
2018-12-27T01:49:37.497Z,28.70
2018-12-27T01:52:06.538Z,30.37
2018-12-27T01:54:35.841Z,29.70
2018-12-27T01:57:05.156Z,28.90
2018-12-27T01:59:34.369Z,29.03
2018-12-27T02:02:03.408Z,28.43
2018-12-27T02:04:32.413Z,27.17
2018-12-27T02:07:01.429Z,27.47
2018-12-27T02:09:30.413Z,27.93
2018-12-27T02:11:59.426Z,27.87
2018-12-27T02:14:28.407Z,28.53
2018-12-27T02:16:57.431Z,27.90
2018-12-27T02:19:26.413Z,29.07
2018-12-27T02:21:55.408Z,26.83
2018-12-27T02:24:24.398Z,26.80
2018-12-27T02:26:53.412Z,26.17
2018-12-27T02:29:22.471Z,26.93
2018-12-27T02:31:51.489Z,25.30
2018-12-27T02:34:20.458Z,25.23
2018-12-27T02:36:49.463Z,25.63
2018-12-27T02:39:18.563Z,26.23
2018-12-27T02:41:47.569Z,24.60
2018-12-27T02:44:16.814Z,25.53
2018-12-27T02:46:45.815Z,24.73
2018-12-27T02:49:14.868Z,24.83
2018-12-27T02:51:43.949Z,24.67
2018-12-27T02:54:12.988Z,24.60
2018-12-27T02:56:41.930Z,24.87
2018-12-27T02:59:12.750Z,24.13
2018-12-27T03:01:41.741Z,26.87
2018-12-27T03:04:10.717Z,26.17
2018-12-27T03:06:39.715Z,26.23
2018-12-27T03:09:08.712Z,28.60
2018-12-27T03:11:37.795Z,25.23
2018-12-27T03:14:06.941Z,27.23
2018-12-27T03:16:35.968Z,24.77
2018-12-27T03:19:05.031Z,26.03
2018-12-27T03:21:34.130Z,24.20
2018-12-27T03:24:03.150Z,23.00
2018-12-27T03:26:32.310Z,24.13
2018-12-27T03:29:01.706Z,26.03
2018-12-27T03:31:30.763Z,23.43
2018-12-27T03:33:59.847Z,23.60
2018-12-27T03:36:28.932Z,23.60
2018-12-27T03:38:58.020Z,23.23
2018-12-27T03:41:27.036Z,23.77
2018-12-27T03:43:56.115Z,24.03
2018-12-27T03:46:25.142Z,23.57
2018-12-27T03:48:54.158Z,24.30
2018-12-27T03:51:23.304Z,22.73
2018-12-27T03:53:52.403Z,23.50
2018-12-27T03:56:21.457Z,22.27
2018-12-27T03:58:50.497Z,20.83
2018-12-27T04:01:19.561Z,22.27
2018-12-27T04:03:48.537Z,22.23
2018-12-27T04:06:17.539Z,22.30
2018-12-27T04:08:46.601Z,21.03
2018-12-27T04:11:15.658Z,20.77
2018-12-27T04:13:44.711Z,21.37
2018-12-27T04:16:13.688Z,21.13
2018-12-27T04:18:43.104Z,20.77
2018-12-27T04:21:13.023Z,21.20
2018-12-27T04:23:42.132Z,22.47
2018-12-27T04:26:17.409Z,21.10
2018-12-27T04:28:46.416Z,18.67
2018-12-27T04:31:15.374Z,20.73
2018-12-27T04:33:44.356Z,21.30
2018-12-27T04:36:14.325Z,20.80
2018-12-27T04:38:43.294Z,20.83
2018-12-27T04:41:12.305Z,21.07
2018-12-27T04:43:41.314Z,21.60
2018-12-27T04:46:10.323Z,21.73
2018-12-27T04:48:39.369Z,22.60
2018-12-27T04:51:08.455Z,22.10
2018-12-27T04:53:37.450Z,20.27
2018-12-27T04:56:06.511Z,21.83
2018-12-27T04:58:35.509Z,20.53
2018-12-27T05:01:04.494Z,20.67
2018-12-27T05:03:33.619Z,20.23
2018-12-27T05:06:02.699Z,19.10
2018-12-27T05:08:31.674Z,18.97
2018-12-27T05:11:00.674Z,19.20
2018-12-27T05:13:29.659Z,17.40
2018-12-27T05:15:58.676Z,17.13
2018-12-27T05:18:27.687Z,17.97
2018-12-27T05:20:56.701Z,17.40
2018-12-27T05:23:25.705Z,15.13
2018-12-27T05:25:54.719Z,16.40
2018-12-27T05:28:23.733Z,16.17
2018-12-27T05:30:52.673Z,16.27
2018-12-27T05:33:21.690Z,15.77
2018-12-27T05:35:50.687Z,17.00
2018-12-27T05:38:19.800Z,16.67
2018-12-27T05:40:48.811Z,16.17
2018-12-27T05:43:17.806Z,16.57
2018-12-27T05:45:46.799Z,16.37
2018-12-27T05:48:15.763Z,16.30
2018-12-27T05:50:44.786Z,15.80
2018-12-27T05:53:13.948Z,16.30
2018-12-27T05:55:42.950Z,17.87
2018-12-27T05:58:11.978Z,17.07
2018-12-27T06:00:41.254Z,17.80
2018-12-27T06:03:09.959Z,16.10
2018-12-27T06:05:38.983Z,16.57
2018-12-27T06:08:07.986Z,16.87
2018-12-27T06:10:37.223Z,17.10
2018-12-27T06:13:06.238Z,15.30
2018-12-27T06:15:35.256Z,14.83
2018-12-27T06:18:04.257Z,15.80
2018-12-27T06:20:33.363Z,16.10
2018-12-27T06:23:02.349Z,15.30
2018-12-27T06:25:31.379Z,14.67
2018-12-27T06:28:00.345Z,15.13
2018-12-27T06:30:29.461Z,15.53
2018-12-27T06:32:58.571Z,14.87
2018-12-27T06:35:27.528Z,15.30
2018-12-27T06:37:56.610Z,14.60
2018-12-27T06:40:25.888Z,15.20
2018-12-27T06:42:54.974Z,15.17
2018-12-27T06:45:23.980Z,13.07
2018-12-27T06:47:53.820Z,14.40
2018-12-27T06:50:22.800Z,15.07
2018-12-27T06:52:52.047Z,14.70
2018-12-27T06:55:21.036Z,13.97
2018-12-27T06:57:50.135Z,14.10
2018-12-27T07:00:19.177Z,13.93
2018-12-27T07:02:48.253Z,14.93
2018-12-27T07:05:17.283Z,14.17
2018-12-27T07:07:46.284Z,13.77
2018-12-27T07:10:15.378Z,13.40
2018-12-27T07:12:44.359Z,13.00
2018-12-27T07:15:13.333Z,14.00
2018-12-27T07:17:42.323Z,13.50
2018-12-27T07:20:11.325Z,13.60
2018-12-27T07:22:40.277Z,14.53
2018-12-27T07:25:09.295Z,16.50
2018-12-27T07:27:38.338Z,15.63
2018-12-27T07:30:07.625Z,16.73
2018-12-27T07:32:36.787Z,16.27
2018-12-27T07:35:05.904Z,15.23
2018-12-27T07:37:34.972Z,15.93
2018-12-27T07:40:05.328Z,19.17
2018-12-27T07:42:41.056Z,16.27
2018-12-27T07:45:10.359Z,16.17
2018-12-27T07:47:39.344Z,15.43
2018-12-27T07:50:08.420Z,17.23
2018-12-27T07:52:37.450Z,17.73
2018-12-27T07:55:06.540Z,15.83
2018-12-27T07:57:35.654Z,16.90
2018-12-27T08:00:05.177Z,17.60
2018-12-27T08:02:34.212Z,24.97
2018-12-27T08:05:04.293Z,27.13
2018-12-27T08:07:32.432Z,16.87
2018-12-27T08:10:01.388Z,16.10
2018-12-27T08:12:30.367Z,16.40
2018-12-27T08:14:59.480Z,17.60
2018-12-27T08:17:28.511Z,16.50
2018-12-27T08:19:57.537Z,19.00
2018-12-27T08:22:26.491Z,17.50
2018-12-27T08:24:55.441Z,22.50
2018-12-27T08:27:24.466Z,20.97
2018-12-27T08:29:53.447Z,18.50
2018-12-27T08:32:22.422Z,18.73
2018-12-27T08:34:51.774Z,19.73
2018-12-27T08:37:20.856Z,20.47
2018-12-27T08:39:50.018Z,19.67
2018-12-27T08:42:18.986Z,21.50
2018-12-27T08:44:48.696Z,20.57
2018-12-27T08:47:18.596Z,20.40
2018-12-27T08:49:48.414Z,20.90
2018-12-27T08:52:18.396Z,19.70
2018-12-27T08:54:47.942Z,21.33
2018-12-27T08:57:17.188Z,20.13
2018-12-27T08:59:46.180Z,20.17
2018-12-27T09:02:15.180Z,20.23
2018-12-27T09:04:44.224Z,19.87
2018-12-27T09:07:13.381Z,20.70
2018-12-27T09:09:42.353Z,21.37
2018-12-27T09:12:11.403Z,20.80
2018-12-27T09:14:40.482Z,21.80
2018-12-27T09:17:09.402Z,21.83
2018-12-27T09:19:38.446Z,23.07
2018-12-27T09:22:07.496Z,22.00
2018-12-27T09:24:36.606Z,22.83
2018-12-27T09:27:05.562Z,22.83
2018-12-27T09:29:34.733Z,23.30
2018-12-27T09:32:03.856Z,22.03
2018-12-27T09:34:33.168Z,21.40
2018-12-27T09:37:02.212Z,20.23
2018-12-27T09:39:31.221Z,21.47
2018-12-27T09:42:00.296Z,21.30
2018-12-27T09:44:29.541Z,20.67
2018-12-27T09:46:58.677Z,20.40
2018-12-27T09:49:27.907Z,20.33
2018-12-27T09:52:02.005Z,20.50
2018-12-27T09:54:26.250Z,20.63
2018-12-27T09:56:55.519Z,21.33
2018-12-27T09:59:24.989Z,20.53
2018-12-27T10:01:53.995Z,22.17
2018-12-27T10:04:23.273Z,20.63
2018-12-27T10:06:52.474Z,20.17
2018-12-27T10:09:21.796Z,19.97
2018-12-27T10:11:51.049Z,21.43
2018-12-27T10:14:20.678Z,21.40
2018-12-27T10:16:50.158Z,21.37
2018-12-27T10:19:19.682Z,20.93
2018-12-27T10:21:48.671Z,21.40
2018-12-27T10:24:17.710Z,21.87
2018-12-27T10:26:46.761Z,20.83
2018-12-27T10:29:15.888Z,20.20
2018-12-27T10:31:45.007Z,21.17
2018-12-27T10:34:14.231Z,20.60
2018-12-27T10:36:43.243Z,20.90
2018-12-27T10:39:13.251Z,21.23
2018-12-27T10:41:42.374Z,20.67
2018-12-27T10:44:11.428Z,21.33
2018-12-27T10:46:40.415Z,20.40
2018-12-27T10:49:09.826Z,20.07
2018-12-27T10:51:38.977Z,21.27
2018-12-27T10:54:09.224Z,20.03
2018-12-27T10:56:38.746Z,20.67
2018-12-27T10:59:07.893Z,20.73
2018-12-27T11:01:37.133Z,21.60
2018-12-27T11:04:21.884Z,19.63
2018-12-27T11:06:50.870Z,20.17
2018-12-27T11:09:20.028Z,20.07
2018-12-27T11:11:49.024Z,20.43
2018-12-27T11:14:18.134Z,19.43
2018-12-27T11:16:47.309Z,19.10
2018-12-27T11:19:16.454Z,19.97
2018-12-27T11:21:46.228Z,18.83
2018-12-27T11:24:16.834Z,19.40
2018-12-27T11:26:46.102Z,18.77
2018-12-27T11:29:15.223Z,18.87
2018-12-27T11:31:44.391Z,19.40
2018-12-27T11:34:13.388Z,19.23
2018-12-27T11:36:42.717Z,17.47
2018-12-27T11:39:11.989Z,18.20
2018-12-27T11:41:41.368Z,18.80
2018-12-27T11:44:11.765Z,17.93
2018-12-27T11:46:40.851Z,18.13
2018-12-27T11:49:10.352Z,17.73
2018-12-27T11:51:39.887Z,17.80
2018-12-27T11:54:09.175Z,17.20
2018-12-27T11:56:39.853Z,18.83
2018-12-27T11:59:09.415Z,17.43
2018-12-27T12:01:38.427Z,17.93
2018-12-27T12:04:07.429Z,18.43
2018-12-27T12:06:36.391Z,18.50
2018-12-27T12:09:07.253Z,17.50
2018-12-27T12:11:36.265Z,16.70
2018-12-27T12:14:05.385Z,17.00
2018-12-27T12:16:42.707Z,16.57
2018-12-27T12:19:12.094Z,16.23
2018-12-27T12:21:41.321Z,18.07
2018-12-27T12:24:10.426Z,18.70
2018-12-27T12:26:39.696Z,18.13
2018-12-27T12:29:08.834Z,18.10
2018-12-27T12:31:38.440Z,18.83
2018-12-27T12:34:07.544Z,18.03
2018-12-27T12:36:36.662Z,17.73
2018-12-27T12:39:07.823Z,19.20
2018-12-27T12:41:36.892Z,18.13
2018-12-27T12:44:05.985Z,17.73
2018-12-27T12:46:34.975Z,17.17
2018-12-27T12:49:04.095Z,16.40
2018-12-27T12:51:33.342Z,15.13
2018-12-27T12:54:02.340Z,15.33
2018-12-27T12:56:31.365Z,16.07
2018-12-27T12:59:01.134Z,15.33
2018-12-27T13:01:30.127Z,16.20
2018-12-27T13:03:59.123Z,15.77
2018-12-27T13:06:28.271Z,15.47
2018-12-27T13:08:57.233Z,15.93
2018-12-27T13:11:26.496Z,15.17
2018-12-27T13:13:55.702Z,14.87
2018-12-27T13:16:24.782Z,16.57
2018-12-27T13:18:53.849Z,15.23
2018-12-27T13:21:23.008Z,16.07
2018-12-27T13:23:52.004Z,16.43
2018-12-27T13:26:21.096Z,15.67
2018-12-27T13:28:50.100Z,16.57
2018-12-27T13:31:19.416Z,17.90
2018-12-27T13:33:48.734Z,17.07
2018-12-27T13:36:17.746Z,17.17
2018-12-27T13:38:46.814Z,16.80
2018-12-27T13:41:15.966Z,17.57
2018-12-27T13:43:45.382Z,17.47
2018-12-27T13:46:14.815Z,18.80
2018-12-27T13:48:43.811Z,17.37
2018-12-27T13:51:12.965Z,18.37
2018-12-27T13:53:42.125Z,17.87
2018-12-27T13:56:11.148Z,17.50
2018-12-27T13:58:40.141Z,18.23
2018-12-27T14:01:09.501Z,17.83
2018-12-27T14:03:38.504Z,18.17
2018-12-27T14:06:07.667Z,17.97
2018-12-27T14:08:36.667Z,18.17
2018-12-27T14:11:05.773Z,18.30
2018-12-27T14:13:34.893Z,18.60
2018-12-27T14:16:04.852Z,17.73
2018-12-27T14:18:33.992Z,16.30
2018-12-27T14:21:03.032Z,18.50
2018-12-27T14:23:32.000Z,19.33
2018-12-27T14:26:01.078Z,17.40
2018-12-27T14:28:30.120Z,18.47
2018-12-27T14:30:59.182Z,18.17
2018-12-27T14:33:28.343Z,17.90
2018-12-27T14:35:57.432Z,19.20
2018-12-27T14:38:26.427Z,19.60
2018-12-27T14:40:55.404Z,18.17
2018-12-27T14:43:24.522Z,18.23
2018-12-27T14:45:53.533Z,18.37
2018-12-27T14:48:22.667Z,18.90
2018-12-27T14:50:51.802Z,18.83
2018-12-27T14:53:20.897Z,19.53
2018-12-27T14:55:50.606Z,19.30
2018-12-27T14:58:19.695Z,20.00
2018-12-27T15:00:48.688Z,18.83
2018-12-27T15:03:17.786Z,19.93
2018-12-27T15:05:46.780Z,19.07
2018-12-27T15:08:15.804Z,18.80
2018-12-27T15:10:44.801Z,18.57
2018-12-27T15:13:13.826Z,17.97
2018-12-27T15:15:42.873Z,18.60
2018-12-27T15:18:12.047Z,20.90
2018-12-27T15:20:41.089Z,18.60
2018-12-27T15:23:10.335Z,18.80
2018-12-27T15:25:39.375Z,19.23
2018-12-27T15:28:08.426Z,21.07
2018-12-27T15:30:37.579Z,20.30
2018-12-27T15:33:06.650Z,20.33
2018-12-27T15:35:35.699Z,20.73
2018-12-27T15:38:04.687Z,21.20
2018-12-27T15:40:33.694Z,21.00
2018-12-27T15:43:02.842Z,20.40
2018-12-27T15:45:31.854Z,20.77
2018-12-27T15:48:00.914Z,21.03
2018-12-27T15:50:29.876Z,20.53
2018-12-27T15:52:58.940Z,19.97
2018-12-27T15:55:27.936Z,20.70
2018-12-27T15:57:56.914Z,22.33
2018-12-27T16:00:26.029Z,22.30
2018-12-27T16:02:55.330Z,21.07
2018-12-27T16:05:24.787Z,22.07
2018-12-27T16:07:53.923Z,21.13
2018-12-27T16:10:22.900Z,21.87
2018-12-27T16:12:52.000Z,20.83
2018-12-27T16:15:21.011Z,22.50
2018-12-27T16:17:50.001Z,21.20
2018-12-27T16:20:19.287Z,21.93
2018-12-27T16:22:48.182Z,22.77
2018-12-27T16:25:17.160Z,21.03
2018-12-27T16:27:46.240Z,21.60
2018-12-27T16:30:15.334Z,21.37
2018-12-27T16:32:44.350Z,21.90
2018-12-27T16:35:13.434Z,23.30
2018-12-27T16:37:42.467Z,22.83
2018-12-27T16:40:11.531Z,21.43
2018-12-27T16:42:40.782Z,22.27
2018-12-27T16:45:09.873Z,21.60
2018-12-27T16:47:38.929Z,21.97
2018-12-27T16:50:08.912Z,20.87
2018-12-27T16:52:38.190Z,21.90
2018-12-27T16:55:07.185Z,22.27
2018-12-27T16:57:36.176Z,21.83
2018-12-27T17:00:05.839Z,22.70
2018-12-27T17:02:35.272Z,21.43
2018-12-27T17:05:04.243Z,20.87
2018-12-27T17:07:33.393Z,21.97
2018-12-27T17:10:02.509Z,21.13
2018-12-27T17:12:31.577Z,21.00
2018-12-27T17:15:00.625Z,21.23
2018-12-27T17:17:29.640Z,20.90
2018-12-27T17:19:58.698Z,20.90
2018-12-27T17:22:27.754Z,20.70
2018-12-27T17:24:56.902Z,20.87
2018-12-27T17:27:30.144Z,21.20
2018-12-27T17:29:59.214Z,22.20
2018-12-27T17:32:28.232Z,21.20
2018-12-27T17:34:57.371Z,21.73
2018-12-27T17:37:26.954Z,20.40
2018-12-27T17:39:56.040Z,19.80
2018-12-27T17:42:25.099Z,20.53
2018-12-27T17:44:54.195Z,20.83
2018-12-27T17:47:24.897Z,20.67
2018-12-27T17:49:54.478Z,21.60
2018-12-27T17:52:30.107Z,20.33
2018-12-27T17:54:52.638Z,20.73
2018-12-27T17:57:21.778Z,20.30
2018-12-27T17:59:50.929Z,20.43
2018-12-27T18:02:19.920Z,21.10
2018-12-27T18:04:49.677Z,19.97
2018-12-27T18:07:18.793Z,18.57
2018-12-27T18:09:48.053Z,18.97
2018-12-27T18:12:18.323Z,20.20
2018-12-27T18:14:59.538Z,20.43
2018-12-27T18:17:29.009Z,20.40
2018-12-27T18:19:59.115Z,21.03
2018-12-27T18:22:28.402Z,19.83
2018-12-27T18:24:57.421Z,21.73
2018-12-27T18:27:26.556Z,19.83
2018-12-27T18:29:55.640Z,20.33
2018-12-27T18:32:24.986Z,20.70
2018-12-27T18:34:54.191Z,20.57
2018-12-27T18:37:24.120Z,20.73
2018-12-27T18:39:53.562Z,20.67
2018-12-27T18:42:22.705Z,21.23
2018-12-27T18:44:51.740Z,19.50
2018-12-27T18:47:21.526Z,20.57
2018-12-27T18:49:50.638Z,19.73
2018-12-27T18:52:19.660Z,21.37
2018-12-27T18:54:48.734Z,19.63
2018-12-27T18:57:17.860Z,19.87
2018-12-27T18:59:46.992Z,19.93
2018-12-27T19:02:16.754Z,20.97
2018-12-27T19:04:45.829Z,20.80
2018-12-27T19:07:14.860Z,20.17
2018-12-27T19:09:43.952Z,20.20
2018-12-27T19:12:24.296Z,19.90
2018-12-27T19:14:57.649Z,19.93
2018-12-27T19:17:32.133Z,21.10
2018-12-27T19:20:01.409Z,19.77
2018-12-27T19:22:39.079Z,19.53
2018-12-27T19:25:08.089Z,19.00
2018-12-27T19:27:37.149Z,19.43
2018-12-27T19:30:06.373Z,19.77
2018-12-27T19:32:35.490Z,21.77
2018-12-27T19:35:04.724Z,21.37
2018-12-27T19:37:33.761Z,22.83
2018-12-27T19:40:02.795Z,20.53
2018-12-27T19:42:31.778Z,20.27
2018-12-27T19:45:03.907Z,20.37
2018-12-27T19:47:42.618Z,20.00
2018-12-27T19:50:17.483Z,21.20
2018-12-27T19:52:50.782Z,21.00
2018-12-27T19:55:24.412Z,20.63
2018-12-27T19:57:54.980Z,20.20
2018-12-27T20:00:24.890Z,21.00
2018-12-27T20:02:55.122Z,20.43
2018-12-27T20:05:24.703Z,20.43
2018-12-27T20:07:59.350Z,21.27
2018-12-27T20:10:23.483Z,21.50
2018-12-27T20:12:52.657Z,22.63
2018-12-27T20:15:21.852Z,22.33
2018-12-27T20:17:51.167Z,22.40
2018-12-27T20:20:20.577Z,23.00
2018-12-27T20:22:50.088Z,22.17
2018-12-27T20:25:19.170Z,22.57
2018-12-27T20:27:48.249Z,23.97
2018-12-27T20:30:17.409Z,23.07
2018-12-27T20:32:46.767Z,22.47
2018-12-27T20:35:16.981Z,22.70
2018-12-27T20:37:46.571Z,22.37
2018-12-27T20:40:16.073Z,22.43
2018-12-27T20:42:45.925Z,22.60
2018-12-27T20:45:16.661Z,22.43
2018-12-27T20:47:46.527Z,23.33
2018-12-27T20:50:16.398Z,22.67
2018-12-27T20:52:46.404Z,22.47
2018-12-27T20:55:15.600Z,22.87
2018-12-27T20:57:45.022Z,23.70
2018-12-27T21:00:14.860Z,24.13
2018-12-27T21:02:44.034Z,24.03
2018-12-27T21:05:13.124Z,24.70
2018-12-27T21:07:42.253Z,24.67
2018-12-27T21:10:11.544Z,25.27
2018-12-27T21:12:40.855Z,24.33
2018-12-27T21:15:10.192Z,25.23
2018-12-27T21:17:40.216Z,24.23
2018-12-27T21:20:09.932Z,25.90
2018-12-27T21:22:39.597Z,23.83
2018-12-27T21:25:09.165Z,23.90
2018-12-27T21:27:38.352Z,24.80
2018-12-27T21:30:08.474Z,24.80
2018-12-27T21:32:37.695Z,25.17
2018-12-27T21:35:06.893Z,27.80
2018-12-27T21:37:36.074Z,26.47
2018-12-27T21:40:05.541Z,26.23
2018-12-27T21:42:34.718Z,25.07
2018-12-27T21:45:04.738Z,25.57
2018-12-27T21:47:34.014Z,26.03
2018-12-27T21:50:03.155Z,25.73
2018-12-27T21:52:32.293Z,24.53
2018-12-27T21:55:01.363Z,24.60
2018-12-27T21:57:30.510Z,25.70
2018-12-27T21:59:59.616Z,26.67
2018-12-27T22:02:30.267Z,26.37
2018-12-27T22:04:59.482Z,25.60
2018-12-27T22:07:28.658Z,24.50
2018-12-27T22:09:58.125Z,25.97
2018-12-27T22:12:27.508Z,25.20
2018-12-27T22:14:56.576Z,26.43
2018-12-27T22:17:25.676Z,25.97
2018-12-27T22:19:54.663Z,25.87
2018-12-27T22:22:23.799Z,26.03
2018-12-27T22:24:52.828Z,26.47
2018-12-27T22:27:21.860Z,27.83
2018-12-27T22:29:50.923Z,28.30
2018-12-27T22:32:20.031Z,27.77
2018-12-27T22:34:49.471Z,28.07
2018-12-27T22:37:18.511Z,28.43
2018-12-27T22:39:47.521Z,27.70
2018-12-27T22:42:17.011Z,26.90
2018-12-27T22:44:46.103Z,28.50
2018-12-27T22:47:15.119Z,27.20
2018-12-27T22:49:44.405Z,27.70
2018-12-27T22:52:13.566Z,27.57
2018-12-27T22:54:42.567Z,26.77
2018-12-27T22:57:11.571Z,27.07
2018-12-27T22:59:40.641Z,27.47
2018-12-27T23:02:09.760Z,28.50
2018-12-27T23:04:38.930Z,28.40
2018-12-27T23:07:08.000Z,29.37
2018-12-27T23:09:37.346Z,29.20
2018-12-27T23:12:06.368Z,27.87
2018-12-27T23:14:35.409Z,29.77
2018-12-27T23:17:04.498Z,28.43
2018-12-27T23:19:33.566Z,29.17
2018-12-27T23:22:02.596Z,29.70
2018-12-27T23:24:31.747Z,29.83
2018-12-27T23:27:00.851Z,29.87
2018-12-27T23:29:29.846Z,30.10
2018-12-27T23:31:59.794Z,29.80
2018-12-27T23:34:28.781Z,30.07
2018-12-27T23:36:57.718Z,29.77
2018-12-27T23:39:26.769Z,29.20
2018-12-27T23:41:55.842Z,29.43
2018-12-27T23:44:24.839Z,29.60
2018-12-27T23:46:53.999Z,29.23
2018-12-27T23:49:23.035Z,28.53
2018-12-27T23:51:52.035Z,27.53
2018-12-27T23:54:21.071Z,28.07
2018-12-27T23:56:50.147Z,28.27
2018-12-27T23:59:19.053Z,28.97
